Latest Weather Observations for Newcastle Nobbys

IDN60901

Issued at 11:31 am EDT Friday 31 March 2017 (issued every 10 minutes, with the page automatically refreshed every 10 minutes)

About weather observations | Map of Sydney area stations | Latest observations for Sydney area | Other Formats
Station Details ID: 061055 Name: NEWCASTLE NOBBYS SIGNAL STATION AWS Lat: -32.92 Lon: 151.80 Height: 33.0 m
Data from the previous 72 hours. | See also: Recent months at Newcastle Nobbys
Date/Time
EDT
Temp
°C
App
Temp
°C
Dew
Point
°C
Rel
Hum
%
Delta-T
°C
Wind Press
QNH
hPa
Press
MSL
hPa
Rain since
9am
mm
Dir  Spd
km/h
Gust
km/h
Spd
kts
Gust
kts
31/11:30am 19.4 12.5 15.7 79 2.2 SSW 46 63 25 34 - - 0.0
31/11:00am 19.2 13.1 15.3 78 2.3 SSW 41 63 22 34 - - 0.0
31/10:38am 19.0 13.7 15.3 79 2.2 SSW 37 56 20 30 - - 0.0
31/10:30am 18.8 14.3 15.3 80 2.1 SSW 33 48 18 26 - - 0.0
31/10:08am 18.5 13.8 14.8 79 2.2 SSW 33 52 18 28 - - 0.0
31/10:00am 18.2 13.5 14.3 78 2.2 SSW 32 48 17 26 - - 0.0
31/09:39am 17.6 13.2 14.1 80 2.0 SSW 30 48 16 26 - - 0.0
31/09:30am 17.2 13.0 13.5 79 2.1 SW 28 41 15 22 - - 0.0
31/09:00am 16.9 14.0 14.0 83 1.7 SW 22 35 12 19 - - 67.0
31/08:30am 16.5 13.7 14.2 86 1.3 SW 22 41 12 22 - - 67.0
31/08:00am 16.4 13.8 14.8 90 0.9 SW 22 35 12 19 - - 67.0
31/07:33am 16.8 12.9 15.5 92 0.8 SSW 30 48 16 26 - - 67.0
31/07:30am 16.9 12.7 15.6 92 0.8 SSW 32 48 17 26 - - 67.0
31/07:00am 16.4 13.2 15.3 93 0.6 SW 26 37 14 20 - - 67.0
31/06:30am 16.6 12.8 15.8 95 0.5 SSW 30 46 16 25 - - 67.0
31/06:00am 16.8 13.2 15.3 91 0.9 SW 28 44 15 24 - - 64.8
31/05:30am 16.8 13.3 15.5 92 0.8 SW 28 44 15 24 - - 64.8
31/05:00am 16.4 13.4 15.8 96 0.4 SW 26 41 14 22 - - 64.8
31/04:30am 16.4 13.8 15.8 96 0.4 SW 24 44 13 24 - - 64.0
31/04:04am 16.5 13.1 15.9 96 0.4 SW 28 48 15 26 - - 63.6
31/04:00am 16.6 13.3 16.0 96 0.4 SW 28 44 15 24 - - 63.6
31/03:30am 16.8 13.4 15.8 94 0.6 SSW 28 43 15 23 - - 62.8
31/03:05am 16.8 13.0 15.8 94 0.6 SW 30 50 16 27 - - 62.6
31/03:00am 16.8 13.0 15.8 94 0.6 SW 30 44 16 24 - - 62.6
31/02:36am 16.6 12.8 15.8 95 0.5 SW 30 50 16 27 - - 62.6
31/02:30am 16.7 13.0 15.9 95 0.5 SW 30 46 16 25 - - 62.4
31/02:00am 16.8 13.7 16.5 98 0.2 SW 28 46 15 25 - - 62.2
31/01:48am 17.0 14.0 16.7 98 0.2 SW 28 48 15 26 - - 62.2
31/01:30am 17.0 14.0 16.7 98 0.2 SW 28 46 15 25 - - 61.8
31/01:16am 17.1 13.7 16.8 98 0.2 SW 30 48 16 26 - - 61.8
31/01:00am 17.4 13.8 17.2 99 0.1 SW 32 46 17 25 - - 61.6
31/12:30am 17.9 11.4 17.6 98 0.2 SSW 48 72 26 39 - - 61.2
31/12:00am 19.8 13.4 17.9 89 1.2 SSW 48 74 26 40 - - 60.4
 
Date/Time
EDT
Temp
°C
App
Temp
°C
Dew
Point
°C
Rel
Hum
%
Delta-T
°C
Wind Press
QNH
hPa
Press
MSL
hPa
Rain since
9am
mm
Dir  Spd
km/h
Gust
km/h
Spd
kts
Gust
kts
30/11:30pm 19.4 11.1 18.2 93 0.7 SSW 59 78 32 42 - - 60.2
30/11:00pm 18.9 10.9 18.1 95 0.5 SSW 57 78 31 42 - - 59.6
30/10:30pm 18.9 11.3 18.9 100 0.0 SSW 57 87 31 47 - - 58.4
30/10:23pm 19.4 13.3 19.4 100 0.0 SSW 50 76 27 41 - - 57.8
30/10:22pm 19.2 13.4 19.2 100 0.0 SSW 48 76 26 41 - - 57.6
30/10:04pm 18.6 15.0 18.6 100 0.0 SSW 35 74 19 40 - - 56.6
30/10:00pm 18.0 14.7 18.0 100 0.0 SW 32 52 17 28 - - 56.4
30/09:48pm 18.2 13.3 18.2 100 0.0 SW 41 85 22 46 - - 56.2
30/09:30pm 19.0 11.0 19.0 100 0.0 SSW 59 83 32 45 - - 55.6
30/09:19pm 18.9 14.3 18.9 100 0.0 SW 41 82 22 44 - - 55.0
30/09:06pm 18.3 13.1 18.3 100 0.0 SW 43 78 23 42 - - 54.6
30/09:02pm 18.8 12.1 18.8 100 0.0 SSW 52 78 28 42 - - 54.2
30/09:00pm 19.4 12.0 19.4 100 0.0 SSW 57 78 31 42 - - 54.2
30/08:30pm 20.0 14.2 20.0 100 0.0 SSW 50 76 27 41 - - 50.6
30/08:00pm 19.9 12.7 19.9 100 0.0 SSW 57 78 31 42 - - 48.2
30/07:56pm 20.1 13.2 20.1 100 0.0 SSW 56 78 30 42 - - 48.2
30/07:54pm 20.3 14.3 20.3 100 0.0 SSW 52 78 28 42 - - 48.0
30/07:30pm 19.8 15.6 19.8 100 0.0 SSW 41 65 22 35 - - 45.4
30/07:07pm 20.9 17.6 20.9 100 0.0 SSW 39 61 21 33 - - 39.8
30/07:00pm 20.8 17.9 20.8 100 0.0 SSW 37 54 20 29 - - 36.0
30/06:58pm 21.3 19.0 21.3 100 0.0 SSW 35 54 19 29 - - 35.6
30/06:30pm 21.7 18.5 21.7 100 0.0 S 41 54 22 29 - - 30.0
30/06:00pm 22.0 19.2 21.8 99 0.1 SSE 39 46 21 25 - - 25.4
30/05:30pm 22.2 20.3 22.0 99 0.1 S 35 39 19 21 - - 25.0
30/05:00pm 21.9 19.4 21.7 99 0.1 S 37 43 20 23 - - 24.8
30/04:30pm 21.7 19.9 21.5 99 0.1 SSE 33 43 18 23 - - 24.4
30/04:00pm 21.6 20.7 21.4 99 0.1 S 28 35 15 19 - - 23.2
30/03:48pm 22.0 21.4 22.0 100 0.0 SSW 28 41 15 22 - - 23.2
30/03:30pm 21.6 23.6 21.6 100 0.0 SSW 13 20 7 11 - - 23.2
30/03:00pm 22.2 24.0 21.9 98 0.2 N 15 22 8 12 - - 6.2
30/02:30pm 23.1 26.2 22.8 98 0.2 N 11 13 6 7 - - 3.4
30/02:00pm 23.1 26.8 22.6 97 0.3 NNE 7 11 4 6 - - 2.0
30/01:30pm 23.1 26.3 22.4 96 0.5 NE 9 13 5 7 - - 1.6
30/01:00pm 23.2 26.1 22.4 95 0.5 NE 11 15 6 8 - - 1.6
30/12:30pm 23.2 24.8 22.2 94 0.7 ENE 17 20 9 11 - - 1.6
30/12:00pm 22.9 23.8 21.5 92 0.9 NE 19 26 10 14 - - 1.0
30/11:30am 23.8 24.7 22.6 93 0.8 NNE 22 28 12 15 - - 0.2
30/11:00am 24.1 26.4 22.7 92 0.9 N 15 20 8 11 - - 0.0
30/10:30am 24.2 27.2 23.3 95 0.6 NNE 13 17 7 9 - - 0.0
30/10:00am 24.3 28.4 23.3 94 0.7 NE 7 9 4 5 - - 0.0
30/09:30am 24.1 28.3 23.1 94 0.7 N 6 9 3 5 - - 0.0
30/09:00am 23.9 26.7 23.0 95 0.6 NNE 13 15 7 8 - - 0.0
30/08:30am 23.9 26.3 22.9 94 0.7 NNE 15 19 8 10 - - 0.0
30/08:00am 23.9 26.8 23.2 96 0.5 NNE 13 17 7 9 - - 0.0
30/07:30am 24.0 27.0 23.3 96 0.5 NE 13 17 7 9 - - 0.0
30/07:00am 23.9 27.7 23.4 97 0.3 NE 9 15 5 8 - - 0.0
30/06:30am 23.8 27.4 23.1 96 0.5 NE 9 11 5 6 - - 0.0
30/06:00am 23.7 27.8 22.9 95 0.5 N 6 9 3 5 - - 0.0
30/05:30am 23.7 27.8 23.0 96 0.5 NNW 6 9 3 5 - - 0.0
30/05:00am 23.8 27.4 23.1 96 0.5 N 9 13 5 7 - - 0.0
30/04:30am 23.9 26.1 23.2 96 0.5 NNE 17 20 9 11 - - 0.0
30/04:00am 24.2 27.2 23.3 95 0.6 NNE 13 17 7 9 - - 0.0
30/03:30am 24.2 26.8 23.3 95 0.6 NNE 15 15 8 8 - - 0.0
30/03:00am 24.2 28.0 23.5 96 0.5 NNE 9 11 5 6 - - 0.0
30/02:30am 24.2 27.9 23.3 95 0.6 N 9 11 5 6 - - 0.0
30/02:00am 24.3 27.7 23.3 94 0.7 NNE 11 11 6 6 - - 0.0
30/01:30am 24.4 28.8 23.4 94 0.7 N 6 7 3 4 - - 0.0
30/01:00am 24.4 28.3 23.0 92 0.9 N 7 9 4 5 - - 0.0
30/12:30am 24.5 28.7 23.5 94 0.7 NNE 7 9 4 5 - - 0.0
30/12:00am 24.5 28.3 23.5 94 0.7 NNE 9 9 5 5 - - 0.0
 
Date/Time
EDT
Temp
°C
App
Temp
°C
Dew
Point
°C
Rel
Hum
%
Delta-T
°C
Wind Press
QNH
hPa
Press
MSL
hPa
Rain since
9am
mm
Dir  Spd
km/h
Gust
km/h
Spd
kts
Gust
kts
29/11:30pm 24.7 28.2 23.5 93 0.8 NNE 11 13 6 7 - - 0.0
29/11:00pm 24.8 27.5 23.4 92 1.0 NE 15 20 8 11 - - 0.0
29/10:30pm 25.0 27.7 23.4 91 1.1 NE 15 22 8 12 - - 0.0
29/10:00pm 25.0 28.1 23.6 92 1.0 NE 13 20 7 11 - - 0.0
29/09:30pm 25.2 28.0 23.6 91 1.1 ENE 15 24 8 13 - - 0.0
29/09:00pm 25.4 28.2 23.6 90 1.2 ENE 15 20 8 11 - - 0.0
29/08:30pm 25.9 30.4 23.9 89 1.4 NNE 7 19 4 10 - - 0.0
29/08:00pm 26.1 29.9 24.1 89 1.4 NE 11 17 6 9 - - 0.0
29/07:30pm 26.1 28.4 24.1 89 1.4 ENE 19 22 10 12 - - 0.0
29/07:00pm 25.7 28.6 23.9 90 1.2 ENE 15 19 8 10 - - 0.0
29/06:30pm 26.1 29.9 24.1 89 1.4 ENE 11 15 6 8 - - 0.0
29/06:00pm 26.4 30.6 24.1 87 1.6 ENE 9 13 5 7 - - 0.0
29/05:30pm 26.4 29.8 24.1 87 1.6 ENE 13 17 7 9 - - 0.0
29/05:00pm 26.5 29.1 24.0 86 1.7 ENE 17 20 9 11 - - 0.0
29/04:30pm 26.5 28.9 23.6 84 2.0 ENE 17 20 9 11 - - 0.0
29/04:00pm 26.4 28.8 23.7 85 1.9 ENE 17 20 9 11 - - 0.0
29/03:30pm 26.0 28.7 23.5 86 1.7 ENE 15 19 8 10 - - 0.0
29/03:00pm 26.0 27.9 23.5 86 1.7 ENE 19 24 10 13 - - 0.0
29/02:30pm 25.8 27.2 22.9 84 2.0 ENE 20 24 11 13 - - 0.0
29/02:00pm 26.6 28.8 23.3 82 2.3 ENE 17 20 9 11 - - 0.0
29/01:30pm 27.8 30.2 23.0 75 3.3 N 15 17 8 9 - - 0.0
29/01:00pm 28.3 31.0 23.4 75 3.4 N 15 20 8 11 - - 0.0
29/12:30pm 27.5 30.0 23.1 77 3.0 N 15 17 8 9 - - 0.0
29/12:00pm 26.9 29.8 23.2 80 2.5 NNE 13 17 7 9 - - 0.0
29/11:30am 26.0 28.5 23.1 84 2.0 N 15 19 8 10 - - 0.0
29/11:00am 24.5 27.0 22.4 88 1.4 N 13 15 7 8 - - 0.0
29/10:30am 23.9 27.0 22.2 90 1.1 NNW 9 17 5 9 - - 0.0
29/10:00am 23.6 26.2 22.0 91 1.1 N 11 13 6 7 - - 0.0
29/09:30am 23.3 26.5 22.3 94 0.7 N 9 11 5 6 - - 0.0
29/09:00am 23.0 26.6 22.3 96 0.5 NNE 7 9 4 5 - - 0.0
29/08:30am 22.7 26.5 22.4 98 0.2 NNE 6 7 3 4 - - 0.0
29/08:00am 22.7 26.7 22.7 100 0.0 NW 6 7 3 4 - - 0.0
29/07:30am 22.6 26.9 22.6 100 0.0 W 4 6 2 3 - - 0.0
29/07:00am 22.6 27.2 22.4 99 0.1 NW 2 4 1 2 - - 0.0
29/06:30am 22.6 27.2 22.4 99 0.1 WNW 2 6 1 3 - - 0.0
29/06:00am 22.5 27.0 22.3 99 0.1 SW 2 6 1 3 - - 0.0
29/05:30am 22.5 26.2 22.3 99 0.1 S 6 7 3 4 - - 0.0
29/05:00am 22.4 25.9 22.2 99 0.1 SSW 7 11 4 6 - - 0.0
29/04:30am 22.4 25.1 22.2 99 0.1 SSW 11 15 6 8 - - 0.0
29/04:00am 22.4 25.1 22.1 98 0.2 SSW 11 17 6 9 - - 0.0
29/03:30am 22.4 24.7 22.1 98 0.2 S 13 17 7 9 - - 0.0
29/03:00am 22.5 24.9 22.2 98 0.2 S 13 17 7 9 - - 0.0
29/02:30am 22.5 24.9 22.2 98 0.2 SSW 13 17 7 9 - - 0.0
29/02:00am 22.5 24.8 22.0 97 0.3 SSW 13 19 7 10 - - 0.0
29/01:30am 22.5 24.8 22.0 97 0.3 SSW 13 17 7 9 - - 0.0
29/01:00am 22.6 24.9 22.1 97 0.3 SSW 13 19 7 10 - - 0.0
29/12:30am 22.7 24.7 22.2 97 0.3 SSW 15 20 8 11 - - 0.0
29/12:00am 22.7 24.6 22.0 96 0.5 SSW 15 20 8 11 - - 0.0
 
Date/Time
EDT
Temp
°C
App
Temp
°C
Dew
Point
°C
Rel
Hum
%
Delta-T
°C
Wind Press
QNH
hPa
Press
MSL
hPa
Rain since
9am
mm
Dir  Spd
km/h
Gust
km/h
Spd
kts
Gust
kts
28/11:30pm 22.8 24.3 22.0 95 0.5 SSW 17 20 9 11 - - 0.0
28/11:00pm 23.0 25.0 22.2 95 0.5 SSW 15 20 8 11 - - 0.0
28/10:30pm 23.1 25.0 22.1 94 0.7 SSW 15 19 8 10 - - 0.0
28/10:00pm 23.0 24.9 22.0 94 0.7 SSW 15 20 8 11 - - 0.0
28/09:30pm 23.0 25.3 22.0 94 0.7 SSW 13 17 7 9 - - 0.0
28/09:00pm 23.1 24.7 22.1 94 0.7 SSW 17 20 9 11 - - 0.0
28/08:30pm 23.0 24.5 22.0 94 0.7 S 17 20 9 11 - - 0.0
28/08:00pm 22.9 24.3 21.9 94 0.7 SSW 17 20 9 11 - - 0.0
28/07:30pm 22.9 24.7 21.9 94 0.7 SSW 15 20 8 11 - - 0.0
28/07:00pm 22.9 23.9 21.7 93 0.8 S 19 22 10 12 - - 0.0
28/06:30pm 22.9 23.8 21.5 92 0.9 S 19 22 10 12 - - 0.0
28/06:00pm 23.0 23.7 21.5 91 1.0 S 20 22 11 12 - - 0.0
28/05:30pm 23.2 23.9 21.6 91 1.1 S 20 24 11 13 - - 0.0
28/05:00pm 23.4 24.3 21.5 89 1.3 S 19 22 10 12 - - 0.0
28/04:30pm 23.2 23.3 21.1 88 1.4 S 22 26 12 14 - - 0.0
28/04:00pm 23.2 22.9 21.1 88 1.4 S 24 28 13 15 - - 0.0
28/03:30pm 23.3 22.6 21.0 87 1.5 S 26 30 14 16 - - 0.0
28/03:00pm 23.4 22.3 21.1 87 1.5 S 28 32 15 17 - - 0.0
28/02:30pm 23.3 21.8 21.0 87 1.5 S 30 33 16 18 - - 0.0
28/02:00pm 23.7 22.7 21.2 86 1.6 S 28 32 15 17 - - 0.0
28/01:30pm 23.8 23.0 20.9 84 1.9 S 26 32 14 17 - - 0.0
28/01:00pm 23.9 23.9 21.0 84 1.9 S 22 26 12 14 - - 0.0
28/12:30pm 24.2 24.7 20.9 82 2.2 SSW 19 24 10 13 - - 0.0
28/12:00pm 23.9 24.5 21.0 84 1.9 SSW 19 28 10 15 - - 0.0

Latest Capital City Observations: Canberra | Sydney | Melbourne | Brisbane | Adelaide | Perth | Hobart | Darwin

Other Formats:

Comma delimited format used in spreadsheet applications
http://www.bom.gov.au/fwo/IDN60901/IDN60901.94774.axf

JavaScript Object Notation format (JSON) in row-major order
http://www.bom.gov.au/fwo/IDN60901/IDN60901.94774.json